createdAt,value
2018-07-10T00:04:25.559Z,1012.68
2018-07-10T00:09:21.390Z,1012.73
2018-07-10T00:14:17.425Z,1012.67
2018-07-10T00:19:13.114Z,1012.76
2018-07-10T00:24:08.890Z,1012.67
2018-07-10T00:29:05.902Z,1012.57
2018-07-10T00:34:01.405Z,1012.57
2018-07-10T00:38:57.223Z,1012.54
2018-07-10T00:43:53.767Z,1012.49
2018-07-10T00:48:50.327Z,1012.42
2018-07-10T00:53:47.260Z,1012.43
2018-07-10T00:58:42.945Z,1012.43
2018-07-10T01:03:38.757Z,1012.51
2018-07-10T01:08:35.524Z,1012.51
2018-07-10T01:13:31.877Z,1012.35
2018-07-10T01:18:27.335Z,1012.36
2018-07-10T01:23:23.156Z,1012.26
2018-07-10T01:28:20.301Z,1012.35
2018-07-10T01:33:15.880Z,1012.30
2018-07-10T01:38:12.816Z,1012.23
2018-07-10T01:43:09.522Z,1012.23
2018-07-10T01:48:04.797Z,1012.26
2018-07-10T01:53:00.911Z,1012.14
2018-07-10T01:57:56.980Z,1011.98
2018-07-10T02:02:53.835Z,1012.00
2018-07-10T02:07:49.304Z,1011.99
2018-07-10T02:12:46.343Z,1011.96
2018-07-10T02:17:42.934Z,1012.00
2018-07-10T02:22:39.815Z,1011.97
2018-07-10T02:27:35.389Z,1011.79
2018-07-10T02:32:32.118Z,1011.90
2018-07-10T02:37:28.488Z,1011.96
2018-07-10T02:42:23.894Z,1011.86
2018-07-10T02:47:19.732Z,1011.98
2018-07-10T02:52:15.448Z,1011.92
2018-07-10T02:57:13.347Z,1011.79
2018-07-10T03:02:08.971Z,1011.77
2018-07-10T03:07:05.685Z,1011.86
2018-07-10T03:12:02.180Z,1011.76
2018-07-10T03:16:58.762Z,1011.89
2018-07-10T03:21:54.581Z,1011.77
2018-07-10T03:26:50.184Z,1011.90
2018-07-10T03:31:46.253Z,1011.80
2018-07-10T03:36:42.149Z,1011.79
2018-07-10T03:41:37.767Z,1011.73
2018-07-10T03:46:34.606Z,1011.67
2018-07-10T03:51:31.119Z,1011.71
2018-07-10T03:56:26.465Z,1011.60
2018-07-10T04:01:22.782Z,1011.61
2018-07-10T04:06:18.862Z,1011.50
2018-07-10T04:11:14.739Z,1011.60
2018-07-10T04:16:10.684Z,1011.61
2018-07-10T04:21:06.466Z,1011.52
2018-07-10T04:26:02.551Z,1011.45
2018-07-10T04:30:58.417Z,1011.31
2018-07-10T04:35:55.248Z,1011.28
2018-07-10T04:40:51.270Z,1011.26
2018-07-10T04:45:47.103Z,1011.35
2018-07-10T04:50:44.087Z,1011.28
2018-07-10T04:55:39.951Z,1011.28
2018-07-10T05:00:36.006Z,1011.22
2018-07-10T05:05:32.084Z,1011.16
2018-07-10T05:10:28.195Z,1011.13
2018-07-10T05:15:23.933Z,1011.19
2018-07-10T05:20:20.841Z,1011.03
2018-07-10T05:25:16.514Z,1011.04
2018-07-10T05:30:13.330Z,1011.02
2018-07-10T05:35:08.985Z,1010.95
2018-07-10T05:40:05.634Z,1010.87
2018-07-10T05:45:01.058Z,1010.90
2018-07-10T05:49:58.104Z,1010.81
2018-07-10T05:54:54.417Z,1010.82
2018-07-10T05:59:50.087Z,1010.76
2018-07-10T06:04:45.790Z,1010.78
2018-07-10T06:09:43.296Z,1010.67
2018-07-10T06:14:38.883Z,1010.66
2018-07-10T06:19:35.978Z,1010.63
2018-07-10T06:24:31.546Z,1010.68
2018-07-10T06:29:27.349Z,1010.56
2018-07-10T06:34:23.590Z,1010.53
2018-07-10T06:39:19.497Z,1010.57
2018-07-10T06:44:16.455Z,1010.60
2018-07-10T06:49:11.986Z,1010.52
2018-07-10T06:54:08.927Z,1010.45
2018-07-10T06:59:05.451Z,1010.57
2018-07-10T07:04:02.323Z,1010.41
2018-07-10T07:08:58.329Z,1010.51
2018-07-10T07:13:54.052Z,1010.32
2018-07-10T07:18:50.236Z,1010.40
2018-07-10T07:23:46.430Z,1010.24
2018-07-10T07:28:42.999Z,1010.24
2018-07-10T07:33:38.620Z,1010.16
2018-07-10T07:38:34.973Z,1010.10
2018-07-10T07:43:31.057Z,1010.11
2018-07-10T07:48:26.998Z,1009.96
2018-07-10T07:53:22.713Z,1009.94
2018-07-10T07:58:18.829Z,1009.83
2018-07-10T08:03:14.870Z,1009.80
2018-07-10T08:08:11.150Z,1009.77
2018-07-10T08:13:07.138Z,1009.64
2018-07-10T08:18:04.429Z,1009.58
2018-07-10T08:23:00.131Z,1009.43
2018-07-10T08:27:56.453Z,1009.49
2018-07-10T08:32:53.245Z,1009.41
2018-07-10T08:37:49.797Z,1009.30
2018-07-10T08:42:46.383Z,1009.28
2018-07-10T08:47:41.890Z,1009.30
2018-07-10T08:52:37.924Z,1009.38
2018-07-10T08:57:33.787Z,1009.33
2018-07-10T09:02:30.337Z,1009.22
2018-07-10T09:07:26.324Z,1009.15
2018-07-10T09:12:22.285Z,1009.11
2018-07-10T09:17:18.155Z,1009.07
2018-07-10T09:22:14.065Z,1009.02
2018-07-10T09:27:10.145Z,1009.06
2018-07-10T09:32:06.897Z,1009.00
2018-07-10T09:37:03.161Z,1008.99
2018-07-10T09:41:59.128Z,1008.83
2018-07-10T09:46:56.484Z,1008.84
2018-07-10T09:51:52.861Z,1008.92
2018-07-10T09:56:48.954Z,1008.89
2018-07-10T10:01:44.316Z,1008.89
2018-07-10T10:06:40.883Z,1008.85
2018-07-10T10:11:37.800Z,1008.85
2018-07-10T10:16:33.713Z,1008.79
2018-07-10T10:21:29.852Z,1008.73
2018-07-10T10:26:25.745Z,1008.77
2018-07-10T10:31:21.663Z,1008.76
2018-07-10T10:36:17.489Z,1008.72
2018-07-10T10:41:13.368Z,1008.70
2018-07-10T10:46:10.749Z,1008.66
2018-07-10T10:51:06.225Z,1008.63
2018-07-10T10:56:01.730Z,1008.49
2018-07-10T11:00:58.298Z,1008.45
2018-07-10T11:05:54.672Z,1008.42
2018-07-10T11:10:50.880Z,1008.40
2018-07-10T11:15:46.864Z,1008.41
2018-07-10T11:20:42.726Z,1008.45
2018-07-10T11:25:39.858Z,1008.44
2018-07-10T11:30:35.961Z,1008.39
2018-07-10T11:35:32.427Z,1008.42
2018-07-10T11:40:29.153Z,1008.34
2018-07-10T11:45:24.737Z,1008.33
2018-07-10T11:50:20.302Z,1008.38
2018-07-10T11:55:17.197Z,1008.19
2018-07-10T12:00:13.744Z,1008.15
2018-07-10T12:05:10.418Z,1008.04
2018-07-10T12:10:06.676Z,1008.09
2018-07-10T12:15:03.141Z,1008.00
2018-07-10T12:20:00.430Z,1007.87
2018-07-10T12:24:58.596Z,1007.83
2018-07-10T12:29:54.536Z,1007.71
2018-07-10T12:34:49.871Z,1007.72
2018-07-10T12:39:46.389Z,1007.61
2018-07-10T12:44:42.770Z,1007.67
2018-07-10T12:49:38.875Z,1007.47
2018-07-10T12:54:34.494Z,1007.42
2018-07-10T12:59:30.587Z,1007.38
2018-07-10T13:04:26.359Z,1007.18
2018-07-10T13:09:22.457Z,1007.01
2018-07-10T13:14:17.974Z,1007.03
2018-07-10T13:19:14.900Z,1006.82
2018-07-10T13:24:13.138Z,1006.77
2018-07-10T13:29:08.194Z,1006.82
2018-07-10T13:34:03.910Z,1006.96
2018-07-10T13:38:58.571Z,1006.95
2018-07-10T13:43:53.918Z,1006.79
2018-07-10T13:48:49.161Z,1006.94
2018-07-10T13:53:45.714Z,1007.50
2018-07-10T13:58:41.341Z,1007.72
2018-07-10T14:03:36.764Z,1007.64
2018-07-10T14:08:32.295Z,1007.69
2018-07-10T14:13:28.024Z,1007.68
2018-07-10T14:18:24.088Z,1007.65
2018-07-10T14:23:20.278Z,1007.65
2018-07-10T14:28:16.564Z,1007.63
2018-07-10T14:33:12.634Z,1007.60
2018-07-10T14:38:09.112Z,1007.59
2018-07-10T14:43:06.540Z,1007.49
2018-07-10T14:48:02.266Z,1007.52
2018-07-10T14:52:57.603Z,1007.43
2018-07-10T14:57:54.431Z,1007.43
2018-07-10T15:02:49.933Z,1007.42
2018-07-10T15:07:47.091Z,1007.31
2018-07-10T15:12:43.855Z,1007.44
2018-07-10T15:17:40.803Z,1007.38
2018-07-10T15:22:37.536Z,1007.35
2018-07-10T15:27:34.307Z,1007.27
2018-07-10T15:32:30.996Z,1007.19
2018-07-10T15:37:26.621Z,1007.19
2018-07-10T15:42:22.524Z,1007.27
2018-07-10T15:47:19.825Z,1007.05
2018-07-10T15:52:15.830Z,1007.07
2018-07-10T15:57:11.610Z,1007.08
2018-07-10T16:02:07.502Z,1007.20
2018-07-10T16:07:03.324Z,1007.14
2018-07-10T16:11:59.100Z,1007.22
2018-07-10T16:16:55.469Z,1007.27
2018-07-10T16:21:50.634Z,1007.22
2018-07-10T16:26:46.506Z,1007.21
2018-07-10T16:31:43.478Z,1007.32
2018-07-10T16:36:38.996Z,1007.43
2018-07-10T16:41:34.880Z,1007.41
2018-07-10T16:46:30.474Z,1007.31
2018-07-10T16:51:26.672Z,1007.43
2018-07-10T16:56:22.832Z,1007.33
2018-07-10T17:01:18.298Z,1007.49
2018-07-10T17:06:15.072Z,1007.64
2018-07-10T17:11:10.429Z,1007.72
2018-07-10T17:16:06.521Z,1007.81
2018-07-10T17:21:03.539Z,1007.75
2018-07-10T17:25:58.812Z,1007.82
2018-07-10T17:30:54.737Z,1007.73
2018-07-10T17:35:51.485Z,1007.81
2018-07-10T17:40:47.387Z,1007.91
2018-07-10T17:45:43.392Z,1007.83
2018-07-10T17:50:39.261Z,1008.01
2018-07-10T17:55:35.090Z,1008.00
2018-07-10T18:00:30.846Z,1008.12
2018-07-10T18:05:26.645Z,1008.28
2018-07-10T18:10:23.562Z,1008.28
2018-07-10T18:15:19.905Z,1008.39
2018-07-10T18:20:17.096Z,1008.43
2018-07-10T18:25:12.486Z,1008.52
2018-07-10T18:30:09.151Z,1008.51
2018-07-10T18:35:04.854Z,1008.54
2018-07-10T18:40:01.190Z,1008.68
2018-07-10T18:44:56.881Z,1008.72
2018-07-10T18:49:53.075Z,1008.82
2018-07-10T18:54:48.855Z,1008.79
2018-07-10T18:59:44.322Z,1008.81
2018-07-10T19:04:40.062Z,1009.00
2018-07-10T19:09:35.910Z,1009.00
2018-07-10T19:14:31.575Z,1009.09
2018-07-10T19:19:28.245Z,1009.03
2018-07-10T19:24:23.903Z,1009.06
2018-07-10T19:29:19.535Z,1009.16
2018-07-10T19:34:16.372Z,1009.19
2018-07-10T19:39:13.104Z,1009.28
2018-07-10T19:44:09.336Z,1009.35
2018-07-10T19:49:06.041Z,1009.35
2018-07-10T19:54:01.777Z,1009.37
2018-07-10T19:58:59.128Z,1009.48
2018-07-10T20:03:54.688Z,1009.49
2018-07-10T20:08:50.412Z,1009.65
2018-07-10T20:13:47.229Z,1009.61
2018-07-10T20:18:42.897Z,1009.63
2018-07-10T20:23:38.882Z,1009.64
2018-07-10T20:28:35.358Z,1009.62
2018-07-10T20:33:31.042Z,1009.74
2018-07-10T20:38:27.672Z,1009.71
2018-07-10T20:43:23.542Z,1009.66
2018-07-10T20:48:19.620Z,1009.82
2018-07-10T20:53:15.109Z,1009.82
2018-07-10T20:58:10.816Z,1009.87
2018-07-10T21:03:07.733Z,1009.76
2018-07-10T21:08:03.226Z,1009.85
2018-07-10T21:13:00.101Z,1009.84
2018-07-10T21:17:55.716Z,1009.73
2018-07-10T21:22:52.375Z,1009.74
2018-07-10T21:27:47.787Z,1009.79
2018-07-10T21:32:43.565Z,1009.65
2018-07-10T21:37:39.383Z,1009.94
2018-07-10T21:42:36.165Z,1010.02
2018-07-10T21:47:33.460Z,1010.10
2018-07-10T21:52:29.108Z,1010.07
2018-07-10T21:57:24.680Z,1010.18
2018-07-10T22:02:20.713Z,1010.28
2018-07-10T22:07:16.547Z,1010.19
2018-07-10T22:12:12.590Z,1010.25
2018-07-10T22:17:09.395Z,1010.33
2018-07-10T22:22:05.153Z,1010.41
2018-07-10T22:27:01.724Z,1010.47
2018-07-10T22:31:57.570Z,1010.54
2018-07-10T22:36:54.065Z,1010.61
2018-07-10T22:41:50.236Z,1010.64
2018-07-10T22:46:46.120Z,1010.69
2018-07-10T22:51:42.266Z,1010.71
2018-07-10T22:56:38.361Z,1010.63
2018-07-10T23:01:34.363Z,1010.75
2018-07-10T23:06:30.167Z,1010.73
2018-07-10T23:11:25.873Z,1010.79
2018-07-10T23:16:21.473Z,1010.72
2018-07-10T23:21:17.291Z,1010.71
2018-07-10T23:26:13.256Z,1010.80
2018-07-10T23:31:10.147Z,1010.67
2018-07-10T23:36:05.707Z,1010.64
2018-07-10T23:41:02.647Z,1010.75
2018-07-10T23:45:57.883Z,1010.63
2018-07-10T23:50:54.454Z,1010.61
2018-07-10T23:55:50.184Z,1010.51
